sensor_id;sensor_type;location;lat;lon;timestamp;P1;durP1;ratioP1;P2;durP2;ratioP2
7817;SDS011;3954;52.624;9.212;2024-01-30T00:01:28;8.80;;;6.80;;
7817;SDS011;3954;52.624;9.212;2024-01-30T00:03:55;7.53;;;6.30;;
7817;SDS011;3954;52.624;9.212;2024-01-30T00:06:21;8.50;;;6.83;;
7817;SDS011;3954;52.624;9.212;2024-01-30T00:08:48;9.90;;;7.33;;
7817;SDS011;3954;52.624;9.212;2024-01-30T00:11:15;7.67;;;6.73;;
7817;SDS011;3954;52.624;9.212;2024-01-30T00:13:41;10.90;;;6.93;;
7817;SDS011;3954;52.624;9.212;2024-01-30T00:16:07;9.10;;;6.80;;
7817;SDS011;3954;52.624;9.212;2024-01-30T00:18:34;10.73;;;7.10;;
7817;SDS011;3954;52.624;9.212;2024-01-30T00:21:01;8.40;;;6.83;;
7817;SDS011;3954;52.624;9.212;2024-01-30T00:23:28;7.57;;;6.77;;
7817;SDS011;3954;52.624;9.212;2024-01-30T00:25:54;9.37;;;7.37;;
7817;SDS011;3954;52.624;9.212;2024-01-30T00:28:20;9.47;;;7.13;;
7817;SDS011;3954;52.624;9.212;2024-01-30T00:30:46;8.53;;;7.60;;
7817;SDS011;3954;52.624;9.212;2024-01-30T00:33:12;9.10;;;7.27;;
7817;SDS011;3954;52.624;9.212;2024-01-30T00:35:38;9.90;;;7.97;;
7817;SDS011;3954;52.624;9.212;2024-01-30T00:38:05;11.67;;;8.57;;
7817;SDS011;3954;52.624;9.212;2024-01-30T00:40:32;9.50;;;7.53;;
7817;SDS011;3954;52.624;9.212;2024-01-30T00:42:58;9.70;;;8.70;;
7817;SDS011;3954;52.624;9.212;2024-01-30T00:45:24;10.37;;;9.00;;
7817;SDS011;3954;52.624;9.212;2024-01-30T00:47:51;11.67;;;9.07;;
7817;SDS011;3954;52.624;9.212;2024-01-30T00:50:17;9.37;;;8.30;;
7817;SDS011;3954;52.624;9.212;2024-01-30T00:52:43;10.27;;;8.87;;
7817;SDS011;3954;52.624;9.212;2024-01-30T00:55:11;10.63;;;8.67;;
7817;SDS011;3954;52.624;9.212;2024-01-30T00:57:37;10.83;;;8.73;;
7817;SDS011;3954;52.624;9.212;2024-01-30T01:00:04;12.73;;;10.47;;
7817;SDS011;3954;52.624;9.212;2024-01-30T01:02:33;10.37;;;9.27;;
7817;SDS011;3954;52.624;9.212;2024-01-30T01:04:59;9.90;;;8.40;;
7817;SDS011;3954;52.624;9.212;2024-01-30T01:07:25;11.67;;;9.63;;
7817;SDS011;3954;52.624;9.212;2024-01-30T01:09:51;10.67;;;8.67;;
7817;SDS011;3954;52.624;9.212;2024-01-30T01:12:19;9.77;;;8.17;;
7817;SDS011;3954;52.624;9.212;2024-01-30T01:14:45;8.80;;;7.87;;
7817;SDS011;3954;52.624;9.212;2024-01-30T01:17:11;9.47;;;7.50;;
7817;SDS011;3954;52.624;9.212;2024-01-30T01:19:37;9.13;;;7.90;;
7817;SDS011;3954;52.624;9.212;2024-01-30T01:22:03;8.70;;;7.80;;
7817;SDS011;3954;52.624;9.212;2024-01-30T01:24:30;9.70;;;8.30;;
7817;SDS011;3954;52.624;9.212;2024-01-30T01:26:57;9.13;;;7.93;;
7817;SDS011;3954;52.624;9.212;2024-01-30T01:29:25;10.03;;;8.67;;
7817;SDS011;3954;52.624;9.212;2024-01-30T01:31:53;9.63;;;8.20;;
7817;SDS011;3954;52.624;9.212;2024-01-30T01:34:20;9.97;;;8.77;;
7817;SDS011;3954;52.624;9.212;2024-01-30T01:36:45;10.57;;;8.60;;
7817;SDS011;3954;52.624;9.212;2024-01-30T01:39:11;9.73;;;8.73;;
7817;SDS011;3954;52.624;9.212;2024-01-30T01:41:37;9.53;;;8.50;;
7817;SDS011;3954;52.624;9.212;2024-01-30T01:44:04;10.60;;;8.63;;
7817;SDS011;3954;52.624;9.212;2024-01-30T01:46:33;10.40;;;8.87;;
7817;SDS011;3954;52.624;9.212;2024-01-30T01:48:59;10.83;;;9.67;;
7817;SDS011;3954;52.624;9.212;2024-01-30T01:51:26;12.70;;;8.77;;
7817;SDS011;3954;52.624;9.212;2024-01-30T01:53:53;10.70;;;8.97;;
7817;SDS011;3954;52.624;9.212;2024-01-30T01:56:19;11.93;;;9.27;;
7817;SDS011;3954;52.624;9.212;2024-01-30T01:58:45;10.50;;;9.40;;
7817;SDS011;3954;52.624;9.212;2024-01-30T02:01:12;13.43;;;9.93;;
7817;SDS011;3954;52.624;9.212;2024-01-30T02:03:40;12.93;;;10.30;;
7817;SDS011;3954;52.624;9.212;2024-01-30T02:06:07;13.07;;;10.43;;
7817;SDS011;3954;52.624;9.212;2024-01-30T02:08:33;13.10;;;10.23;;
7817;SDS011;3954;52.624;9.212;2024-01-30T02:10:59;12.70;;;10.50;;
7817;SDS011;3954;52.624;9.212;2024-01-30T02:13:25;13.50;;;11.50;;
7817;SDS011;3954;52.624;9.212;2024-01-30T02:15:51;11.03;;;9.93;;
7817;SDS011;3954;52.624;9.212;2024-01-30T02:18:18;10.53;;;9.40;;
7817;SDS011;3954;52.624;9.212;2024-01-30T02:20:45;12.00;;;9.97;;
7817;SDS011;3954;52.624;9.212;2024-01-30T02:23:14;12.23;;;9.43;;
7817;SDS011;3954;52.624;9.212;2024-01-30T02:25:41;11.17;;;9.97;;
7817;SDS011;3954;52.624;9.212;2024-01-30T02:28:09;11.53;;;10.33;;
7817;SDS011;3954;52.624;9.212;2024-01-30T02:30:35;12.83;;;9.83;;
7817;SDS011;3954;52.624;9.212;2024-01-30T02:33:01;10.73;;;9.63;;
7817;SDS011;3954;52.624;9.212;2024-01-30T02:35:27;11.73;;;9.90;;
7817;SDS011;3954;52.624;9.212;2024-01-30T02:37:53;10.30;;;8.93;;
7817;SDS011;3954;52.624;9.212;2024-01-30T02:40:21;10.37;;;9.30;;
7817;SDS011;3954;52.624;9.212;2024-01-30T02:42:47;9.80;;;8.70;;
7817;SDS011;3954;52.624;9.212;2024-01-30T02:45:13;10.53;;;9.10;;
7817;SDS011;3954;52.624;9.212;2024-01-30T02:47:39;11.13;;;9.77;;
7817;SDS011;3954;52.624;9.212;2024-01-30T02:50:05;10.53;;;9.43;;
7817;SDS011;3954;52.624;9.212;2024-01-30T02:52:31;12.60;;;10.43;;
7817;SDS011;3954;52.624;9.212;2024-01-30T02:54:57;11.60;;;8.97;;
7817;SDS011;3954;52.624;9.212;2024-01-30T02:57:25;12.23;;;10.13;;
7817;SDS011;3954;52.624;9.212;2024-01-30T02:59:51;11.63;;;9.27;;
7817;SDS011;3954;52.624;9.212;2024-01-30T03:02:17;13.07;;;9.97;;
7817;SDS011;3954;52.624;9.212;2024-01-30T03:04:43;10.77;;;9.67;;
7817;SDS011;3954;52.624;9.212;2024-01-30T03:07:09;11.90;;;9.03;;
7817;SDS011;3954;52.624;9.212;2024-01-30T03:12:01;12.40;;;9.60;;
7817;SDS011;3954;52.624;9.212;2024-01-30T03:14:29;11.73;;;10.33;;
7817;SDS011;3954;52.624;9.212;2024-01-30T03:16:55;10.83;;;9.37;;
7817;SDS011;3954;52.624;9.212;2024-01-30T03:19:21;11.80;;;9.63;;
7817;SDS011;3954;52.624;9.212;2024-01-30T03:21:47;11.10;;;9.37;;
7817;SDS011;3954;52.624;9.212;2024-01-30T03:24:13;12.87;;;9.47;;
7817;SDS011;3954;52.624;9.212;2024-01-30T03:26:39;12.17;;;9.77;;
7817;SDS011;3954;52.624;9.212;2024-01-30T03:29:05;11.83;;;10.47;;
7817;SDS011;3954;52.624;9.212;2024-01-30T03:31:32;11.77;;;10.33;;
7817;SDS011;3954;52.624;9.212;2024-01-30T03:33:58;14.27;;;11.33;;
7817;SDS011;3954;52.624;9.212;2024-01-30T03:36:24;14.30;;;11.73;;
7817;SDS011;3954;52.624;9.212;2024-01-30T03:38:50;12.80;;;11.50;;
7817;SDS011;3954;52.624;9.212;2024-01-30T03:41:16;14.30;;;11.33;;
7817;SDS011;3954;52.624;9.212;2024-01-30T03:43:42;15.17;;;12.13;;
7817;SDS011;3954;52.624;9.212;2024-01-30T03:46:08;13.13;;;11.83;;
7817;SDS011;3954;52.624;9.212;2024-01-30T03:48:36;13.47;;;12.07;;
7817;SDS011;3954;52.624;9.212;2024-01-30T03:51:02;16.00;;;12.30;;
7817;SDS011;3954;52.624;9.212;2024-01-30T03:53:28;14.13;;;12.03;;
7817;SDS011;3954;52.624;9.212;2024-01-30T03:55:54;13.90;;;11.77;;
7817;SDS011;3954;52.624;9.212;2024-01-30T03:58:20;13.87;;;12.27;;
7817;SDS011;3954;52.624;9.212;2024-01-30T04:00:46;13.97;;;11.50;;
7817;SDS011;3954;52.624;9.212;2024-01-30T04:03:12;13.37;;;11.73;;
7817;SDS011;3954;52.624;9.212;2024-01-30T04:05:39;14.90;;;11.57;;
7817;SDS011;3954;52.624;9.212;2024-01-30T04:08:05;13.67;;;11.23;;
7817;SDS011;3954;52.624;9.212;2024-01-30T04:10:32;13.27;;;10.90;;
7817;SDS011;3954;52.624;9.212;2024-01-30T04:12:57;11.77;;;10.50;;
7817;SDS011;3954;52.624;9.212;2024-01-30T04:15:24;12.33;;;10.90;;
7817;SDS011;3954;52.624;9.212;2024-01-30T04:17:50;14.77;;;11.50;;
7817;SDS011;3954;52.624;9.212;2024-01-30T04:20:16;11.17;;;10.07;;
7817;SDS011;3954;52.624;9.212;2024-01-30T04:22:44;11.07;;;9.83;;
7817;SDS011;3954;52.624;9.212;2024-01-30T04:25:10;12.17;;;9.93;;
7817;SDS011;3954;52.624;9.212;2024-01-30T04:27:36;12.70;;;10.50;;
7817;SDS011;3954;52.624;9.212;2024-01-30T04:30:03;13.53;;;10.50;;
7817;SDS011;3954;52.624;9.212;2024-01-30T04:32:29;11.37;;;10.27;;
7817;SDS011;3954;52.624;9.212;2024-01-30T04:34:55;12.33;;;10.50;;
7817;SDS011;3954;52.624;9.212;2024-01-30T04:37:21;14.27;;;10.53;;
7817;SDS011;3954;52.624;9.212;2024-01-30T04:39:48;12.33;;;9.90;;
7817;SDS011;3954;52.624;9.212;2024-01-30T04:42:14;11.97;;;10.57;;
7817;SDS011;3954;52.624;9.212;2024-01-30T04:44:40;11.90;;;10.10;;
7817;SDS011;3954;52.624;9.212;2024-01-30T04:47:06;11.63;;;9.70;;
7817;SDS011;3954;52.624;9.212;2024-01-30T04:49:34;10.90;;;9.80;;
7817;SDS011;3954;52.624;9.212;2024-01-30T04:52:00;12.03;;;9.73;;
7817;SDS011;3954;52.624;9.212;2024-01-30T04:54:26;10.03;;;8.80;;
7817;SDS011;3954;52.624;9.212;2024-01-30T04:56:53;11.47;;;10.10;;
7817;SDS011;3954;52.624;9.212;2024-01-30T04:59:19;10.93;;;9.37;;
7817;SDS011;3954;52.624;9.212;2024-01-30T05:01:45;13.07;;;9.77;;
7817;SDS011;3954;52.624;9.212;2024-01-30T05:04:11;10.83;;;9.70;;
7817;SDS011;3954;52.624;9.212;2024-01-30T05:06:37;13.37;;;10.77;;
7817;SDS011;3954;52.624;9.212;2024-01-30T05:09:03;11.40;;;10.30;;
7817;SDS011;3954;52.624;9.212;2024-01-30T05:11:29;11.70;;;10.50;;
7817;SDS011;3954;52.624;9.212;2024-01-30T05:13:57;12.00;;;9.97;;
7817;SDS011;3954;52.624;9.212;2024-01-30T05:16:23;13.27;;;11.03;;
7817;SDS011;3954;52.624;9.212;2024-01-30T05:18:49;15.33;;;12.03;;
7817;SDS011;3954;52.624;9.212;2024-01-30T05:21:15;13.90;;;12.13;;
7817;SDS011;3954;52.624;9.212;2024-01-30T05:23:41;13.67;;;11.00;;
7817;SDS011;3954;52.624;9.212;2024-01-30T05:26:07;12.57;;;11.27;;
7817;SDS011;3954;52.624;9.212;2024-01-30T05:28:33;12.43;;;11.23;;
7817;SDS011;3954;52.624;9.212;2024-01-30T05:31:00;13.10;;;11.70;;
7817;SDS011;3954;52.624;9.212;2024-01-30T05:33:26;12.87;;;11.30;;
7817;SDS011;3954;52.624;9.212;2024-01-30T05:35:52;12.97;;;10.93;;
7817;SDS011;3954;52.624;9.212;2024-01-30T05:38:19;12.90;;;11.00;;
7817;SDS011;3954;52.624;9.212;2024-01-30T05:40:45;12.00;;;10.80;;
7817;SDS011;3954;52.624;9.212;2024-01-30T05:43:11;13.00;;;11.00;;
7817;SDS011;3954;52.624;9.212;2024-01-30T05:45:37;12.87;;;11.30;;
7817;SDS011;3954;52.624;9.212;2024-01-30T05:48:05;11.97;;;10.60;;
7817;SDS011;3954;52.624;9.212;2024-01-30T05:50:31;12.87;;;11.13;;
7817;SDS011;3954;52.624;9.212;2024-01-30T05:52:57;13.80;;;11.50;;
7817;SDS011;3954;52.624;9.212;2024-01-30T05:55:23;13.23;;;11.83;;
7817;SDS011;3954;52.624;9.212;2024-01-30T05:57:49;14.77;;;12.47;;
7817;SDS011;3954;52.624;9.212;2024-01-30T06:00:17;14.40;;;11.87;;
7817;SDS011;3954;52.624;9.212;2024-01-30T06:02:43;12.87;;;11.07;;
7817;SDS011;3954;52.624;9.212;2024-01-30T06:05:10;14.50;;;11.97;;
7817;SDS011;3954;52.624;9.212;2024-01-30T06:07:36;13.67;;;12.27;;
7817;SDS011;3954;52.624;9.212;2024-01-30T06:10:03;13.57;;;12.13;;
7817;SDS011;3954;52.624;9.212;2024-01-30T06:12:29;13.40;;;11.77;;
7817;SDS011;3954;52.624;9.212;2024-01-30T06:14:55;12.37;;;10.93;;
7817;SDS011;3954;52.624;9.212;2024-01-30T06:17:22;14.70;;;11.43;;
7817;SDS011;3954;52.624;9.212;2024-01-30T06:19:47;13.93;;;11.53;;
7817;SDS011;3954;52.624;9.212;2024-01-30T06:22:15;13.00;;;11.57;;
7817;SDS011;3954;52.624;9.212;2024-01-30T06:24:41;13.13;;;11.40;;
7817;SDS011;3954;52.624;9.212;2024-01-30T06:27:09;15.57;;;12.80;;
7817;SDS011;3954;52.624;9.212;2024-01-30T06:29:36;15.87;;;13.03;;
7817;SDS011;3954;52.624;9.212;2024-01-30T06:32:02;13.57;;;12.17;;
7817;SDS011;3954;52.624;9.212;2024-01-30T06:34:28;20.27;;;13.53;;
7817;SDS011;3954;52.624;9.212;2024-01-30T06:36:54;16.23;;;13.43;;
7817;SDS011;3954;52.624;9.212;2024-01-30T06:39:21;17.27;;;13.33;;
7817;SDS011;3954;52.624;9.212;2024-01-30T06:41:48;17.73;;;12.97;;
7817;SDS011;3954;52.624;9.212;2024-01-30T06:44:14;14.37;;;12.43;;
7817;SDS011;3954;52.624;9.212;2024-01-30T06:46:40;14.90;;;12.60;;
7817;SDS011;3954;52.624;9.212;2024-01-30T06:49:06;17.87;;;13.10;;
7817;SDS011;3954;52.624;9.212;2024-01-30T06:51:32;16.10;;;12.17;;
7817;SDS011;3954;52.624;9.212;2024-01-30T06:53:58;15.20;;;13.53;;
7817;SDS011;3954;52.624;9.212;2024-01-30T06:56:25;15.40;;;13.57;;
7817;SDS011;3954;52.624;9.212;2024-01-30T06:58:51;15.50;;;12.87;;
7817;SDS011;3954;52.624;9.212;2024-01-30T07:01:17;16.77;;;13.50;;
7817;SDS011;3954;52.624;9.212;2024-01-30T07:03:43;15.07;;;13.47;;
7817;SDS011;3954;52.624;9.212;2024-01-30T07:06:09;16.30;;;12.97;;
7817;SDS011;3954;52.624;9.212;2024-01-30T07:08:38;16.77;;;13.13;;
7817;SDS011;3954;52.624;9.212;2024-01-30T07:11:04;15.40;;;12.90;;
7817;SDS011;3954;52.624;9.212;2024-01-30T07:13:32;16.30;;;12.93;;
7817;SDS011;3954;52.624;9.212;2024-01-30T07:15:58;17.73;;;13.80;;
7817;SDS011;3954;52.624;9.212;2024-01-30T07:18:24;15.33;;;13.00;;
7817;SDS011;3954;52.624;9.212;2024-01-30T07:20:50;15.73;;;12.73;;
7817;SDS011;3954;52.624;9.212;2024-01-30T07:23:17;15.33;;;12.90;;
7817;SDS011;3954;52.624;9.212;2024-01-30T07:25:43;16.03;;;11.60;;
7817;SDS011;3954;52.624;9.212;2024-01-30T07:28:10;13.30;;;11.67;;
7817;SDS011;3954;52.624;9.212;2024-01-30T07:30:38;16.10;;;12.87;;
7817;SDS011;3954;52.624;9.212;2024-01-30T07:33:04;14.40;;;12.67;;
7817;SDS011;3954;52.624;9.212;2024-01-30T07:35:30;15.90;;;13.13;;
7817;SDS011;3954;52.624;9.212;2024-01-30T07:37:56;15.30;;;12.67;;
7817;SDS011;3954;52.624;9.212;2024-01-30T07:40:22;18.10;;;13.97;;
7817;SDS011;3954;52.624;9.212;2024-01-30T07:42:49;14.90;;;12.77;;
7817;SDS011;3954;52.624;9.212;2024-01-30T07:45:15;14.90;;;12.23;;
7817;SDS011;3954;52.624;9.212;2024-01-30T07:47:42;15.53;;;12.77;;
7817;SDS011;3954;52.624;9.212;2024-01-30T07:50:08;15.10;;;12.70;;
7817;SDS011;3954;52.624;9.212;2024-01-30T07:52:34;18.17;;;12.83;;
7817;SDS011;3954;52.624;9.212;2024-01-30T07:55:02;13.90;;;12.27;;
7817;SDS011;3954;52.624;9.212;2024-01-30T07:57:29;14.27;;;12.37;;
7817;SDS011;3954;52.624;9.212;2024-01-30T07:59:55;13.17;;;11.87;;
7817;SDS011;3954;52.624;9.212;2024-01-30T08:02:22;12.67;;;11.13;;
7817;SDS011;3954;52.624;9.212;2024-01-30T08:04:49;13.97;;;12.27;;
7817;SDS011;3954;52.624;9.212;2024-01-30T08:07:15;13.77;;;11.00;;
7817;SDS011;3954;52.624;9.212;2024-01-30T08:09:42;13.17;;;10.73;;
7817;SDS011;3954;52.624;9.212;2024-01-30T08:12:08;12.87;;;11.53;;
7817;SDS011;3954;52.624;9.212;2024-01-30T08:14:34;15.27;;;11.80;;
7817;SDS011;3954;52.624;9.212;2024-01-30T08:17:00;13.93;;;11.70;;
7817;SDS011;3954;52.624;9.212;2024-01-30T08:19:26;15.10;;;11.93;;
7817;SDS011;3954;52.624;9.212;2024-01-30T08:21:54;13.00;;;11.50;;
7817;SDS011;3954;52.624;9.212;2024-01-30T08:24:20;12.30;;;11.00;;
7817;SDS011;3954;52.624;9.212;2024-01-30T08:26:46;14.47;;;11.67;;
7817;SDS011;3954;52.624;9.212;2024-01-30T08:29:12;12.93;;;10.33;;
7817;SDS011;3954;52.624;9.212;2024-01-30T08:31:38;14.73;;;11.20;;
7817;SDS011;3954;52.624;9.212;2024-01-30T08:34:04;13.43;;;12.03;;
7817;SDS011;3954;52.624;9.212;2024-01-30T08:36:30;13.93;;;11.23;;
7817;SDS011;3954;52.624;9.212;2024-01-30T08:38:58;13.50;;;11.23;;
7817;SDS011;3954;52.624;9.212;2024-01-30T08:41:24;12.23;;;10.90;;
7817;SDS011;3954;52.624;9.212;2024-01-30T08:43:50;13.03;;;11.70;;
7817;SDS011;3954;52.624;9.212;2024-01-30T08:46:17;16.23;;;11.33;;
7817;SDS011;3954;52.624;9.212;2024-01-30T08:48:43;12.50;;;11.17;;
7817;SDS011;3954;52.624;9.212;2024-01-30T08:51:09;13.37;;;11.00;;
7817;SDS011;3954;52.624;9.212;2024-01-30T08:53:36;12.53;;;10.77;;
7817;SDS011;3954;52.624;9.212;2024-01-30T08:56:03;14.77;;;11.43;;
7817;SDS011;3954;52.624;9.212;2024-01-30T08:58:29;11.80;;;10.63;;
7817;SDS011;3954;52.624;9.212;2024-01-30T09:00:55;11.93;;;10.70;;
7817;SDS011;3954;52.624;9.212;2024-01-30T09:03:21;12.10;;;9.90;;
7817;SDS011;3954;52.624;9.212;2024-01-30T09:05:47;14.20;;;10.50;;
7817;SDS011;3954;52.624;9.212;2024-01-30T09:08:13;12.33;;;10.93;;
7817;SDS011;3954;52.624;9.212;2024-01-30T09:10:39;14.97;;;10.67;;
7817;SDS011;3954;52.624;9.212;2024-01-30T09:13:07;13.37;;;10.43;;
7817;SDS011;3954;52.624;9.212;2024-01-30T09:15:33;13.70;;;10.40;;
7817;SDS011;3954;52.624;9.212;2024-01-30T09:18:00;10.80;;;9.70;;
7817;SDS011;3954;52.624;9.212;2024-01-30T09:20:26;11.00;;;9.27;;
7817;SDS011;3954;52.624;9.212;2024-01-30T09:22:52;12.33;;;10.10;;
7817;SDS011;3954;52.624;9.212;2024-01-30T09:25:18;12.97;;;9.97;;
7817;SDS011;3954;52.624;9.212;2024-01-30T09:27:44;11.77;;;9.60;;
7817;SDS011;3954;52.624;9.212;2024-01-30T09:30:12;10.93;;;9.80;;
7817;SDS011;3954;52.624;9.212;2024-01-30T09:32:39;13.73;;;9.90;;
7817;SDS011;3954;52.624;9.212;2024-01-30T09:35:05;9.60;;;8.60;;
7817;SDS011;3954;52.624;9.212;2024-01-30T09:37:31;10.40;;;8.80;;
7817;SDS011;3954;52.624;9.212;2024-01-30T09:39:57;10.23;;;8.60;;
7817;SDS011;3954;52.624;9.212;2024-01-30T09:42:26;9.87;;;8.87;;
7817;SDS011;3954;52.624;9.212;2024-01-30T09:44:52;11.00;;;8.90;;
7817;SDS011;3954;52.624;9.212;2024-01-30T09:47:20;9.80;;;8.30;;
7817;SDS011;3954;52.624;9.212;2024-01-30T09:49:46;9.97;;;8.40;;
7817;SDS011;3954;52.624;9.212;2024-01-30T09:52:13;10.60;;;8.07;;
7817;SDS011;3954;52.624;9.212;2024-01-30T09:54:40;11.20;;;8.20;;
7817;SDS011;3954;52.624;9.212;2024-01-30T09:57:07;9.70;;;8.60;;
7817;SDS011;3954;52.624;9.212;2024-01-30T09:59:34;11.87;;;8.43;;
7817;SDS011;3954;52.624;9.212;2024-01-30T10:02:00;11.00;;;8.17;;
7817;SDS011;3954;52.624;9.212;2024-01-30T10:04:29;9.10;;;8.13;;
7817;SDS011;3954;52.624;9.212;2024-01-30T10:06:55;11.23;;;9.03;;
7817;SDS011;3954;52.624;9.212;2024-01-30T10:09:23;10.47;;;8.27;;
7817;SDS011;3954;52.624;9.212;2024-01-30T10:11:50;9.63;;;8.27;;
7817;SDS011;3954;52.624;9.212;2024-01-30T10:14:17;11.73;;;9.03;;
7817;SDS011;3954;52.624;9.212;2024-01-30T10:16:42;9.57;;;8.33;;
7817;SDS011;3954;52.624;9.212;2024-01-30T10:19:10;10.77;;;8.50;;
7817;SDS011;3954;52.624;9.212;2024-01-30T10:21:37;10.80;;;8.23;;
7817;SDS011;3954;52.624;9.212;2024-01-30T10:24:04;14.97;;;8.03;;
7817;SDS011;3954;52.624;9.212;2024-01-30T10:26:30;9.40;;;8.27;;
7817;SDS011;3954;52.624;9.212;2024-01-30T10:28:59;10.50;;;7.63;;
7817;SDS011;3954;52.624;9.212;2024-01-30T10:31:25;9.60;;;8.33;;
7817;SDS011;3954;52.624;9.212;2024-01-30T10:33:51;10.47;;;8.13;;
7817;SDS011;3954;52.624;9.212;2024-01-30T10:36:17;9.00;;;7.90;;
7817;SDS011;3954;52.624;9.212;2024-01-30T10:38:44;9.90;;;7.87;;
7817;SDS011;3954;52.624;9.212;2024-01-30T10:41:11;11.47;;;8.30;;
7817;SDS011;3954;52.624;9.212;2024-01-30T10:43:40;9.37;;;7.73;;
7817;SDS011;3954;52.624;9.212;2024-01-30T10:46:09;7.83;;;7.03;;
7817;SDS011;3954;52.624;9.212;2024-01-30T10:48:38;10.97;;;8.03;;
7817;SDS011;3954;52.624;9.212;2024-01-30T10:51:08;9.20;;;7.60;;
7817;SDS011;3954;52.624;9.212;2024-01-30T10:53:35;9.77;;;7.87;;
7817;SDS011;3954;52.624;9.212;2024-01-30T10:56:04;9.57;;;7.13;;
7817;SDS011;3954;52.624;9.212;2024-01-30T10:58:30;10.60;;;6.93;;
7817;SDS011;3954;52.624;9.212;2024-01-30T11:00:56;10.00;;;7.50;;
7817;SDS011;3954;52.624;9.212;2024-01-30T11:03:22;8.00;;;7.00;;
7817;SDS011;3954;52.624;9.212;2024-01-30T11:05:49;7.90;;;7.10;;
7817;SDS011;3954;52.624;9.212;2024-01-30T11:08:22;9.70;;;7.20;;
7817;SDS011;3954;52.624;9.212;2024-01-30T11:10:48;7.97;;;6.27;;
7817;SDS011;3954;52.624;9.212;2024-01-30T11:13:15;8.50;;;6.10;;
7817;SDS011;3954;52.624;9.212;2024-01-30T11:15:41;6.97;;;6.10;;
7817;SDS011;3954;52.624;9.212;2024-01-30T11:18:07;8.20;;;6.47;;
7817;SDS011;3954;52.624;9.212;2024-01-30T11:20:33;8.53;;;6.37;;
7817;SDS011;3954;52.624;9.212;2024-01-30T11:23:01;9.53;;;6.80;;
7817;SDS011;3954;52.624;9.212;2024-01-30T11:25:31;10.27;;;6.83;;
7817;SDS011;3954;52.624;9.212;2024-01-30T11:27:58;8.07;;;5.70;;
7817;SDS011;3954;52.624;9.212;2024-01-30T11:30:25;7.20;;;5.83;;
7817;SDS011;3954;52.624;9.212;2024-01-30T11:32:58;6.20;;;5.50;;
7817;SDS011;3954;52.624;9.212;2024-01-30T11:35:24;6.07;;;5.47;;
7817;SDS011;3954;52.624;9.212;2024-01-30T11:37:51;8.03;;;5.60;;
7817;SDS011;3954;52.624;9.212;2024-01-30T11:40:17;7.73;;;5.97;;
7817;SDS011;3954;52.624;9.212;2024-01-30T11:42:43;8.27;;;5.93;;
7817;SDS011;3954;52.624;9.212;2024-01-30T11:45:09;6.60;;;5.47;;
7817;SDS011;3954;52.624;9.212;2024-01-30T11:47:37;8.33;;;6.00;;
7817;SDS011;3954;52.624;9.212;2024-01-30T11:50:04;12.83;;;5.83;;
7817;SDS011;3954;52.624;9.212;2024-01-30T11:52:31;7.13;;;5.93;;
7817;SDS011;3954;52.624;9.212;2024-01-30T11:54:57;5.93;;;5.10;;
7817;SDS011;3954;52.624;9.212;2024-01-30T11:57:23;5.83;;;5.23;;
7817;SDS011;3954;52.624;9.212;2024-01-30T11:59:49;6.57;;;5.63;;
7817;SDS011;3954;52.624;9.212;2024-01-30T12:02:15;5.60;;;5.00;;
7817;SDS011;3954;52.624;9.212;2024-01-30T12:04:43;14.00;;;5.63;;
7817;SDS011;3954;52.624;9.212;2024-01-30T12:07:09;7.67;;;5.50;;
7817;SDS011;3954;52.624;9.212;2024-01-30T12:09:36;6.40;;;5.80;;
7817;SDS011;3954;52.624;9.212;2024-01-30T12:12:02;8.87;;;6.13;;
7817;SDS011;3954;52.624;9.212;2024-01-30T12:14:28;7.20;;;5.60;;
7817;SDS011;3954;52.624;9.212;2024-01-30T12:16:54;9.27;;;6.23;;
7817;SDS011;3954;52.624;9.212;2024-01-30T12:19:23;7.47;;;5.90;;
7817;SDS011;3954;52.624;9.212;2024-01-30T12:21:54;8.33;;;6.13;;
7817;SDS011;3954;52.624;9.212;2024-01-30T12:24:21;8.90;;;6.37;;
7817;SDS011;3954;52.624;9.212;2024-01-30T12:26:47;7.77;;;6.13;;
7817;SDS011;3954;52.624;9.212;2024-01-30T12:29:14;8.97;;;5.57;;
7817;SDS011;3954;52.624;9.212;2024-01-30T12:31:41;7.33;;;6.50;;
7817;SDS011;3954;52.624;9.212;2024-01-30T12:34:07;9.57;;;6.17;;
7817;SDS011;3954;52.624;9.212;2024-01-30T12:36:33;6.60;;;5.83;;
7817;SDS011;3954;52.624;9.212;2024-01-30T12:39:01;7.47;;;6.23;;
7817;SDS011;3954;52.624;9.212;2024-01-30T12:41:27;8.00;;;6.73;;
7817;SDS011;3954;52.624;9.212;2024-01-30T12:43:53;8.57;;;6.87;;
7817;SDS011;3954;52.624;9.212;2024-01-30T12:46:19;8.57;;;6.30;;
7817;SDS011;3954;52.624;9.212;2024-01-30T12:48:45;6.80;;;5.90;;
7817;SDS011;3954;52.624;9.212;2024-01-30T12:51:11;7.07;;;6.00;;
7817;SDS011;3954;52.624;9.212;2024-01-30T12:53:37;7.03;;;6.33;;
7817;SDS011;3954;52.624;9.212;2024-01-30T12:56:05;7.13;;;5.83;;
7817;SDS011;3954;52.624;9.212;2024-01-30T12:58:31;6.80;;;6.07;;
7817;SDS011;3954;52.624;9.212;2024-01-30T13:00:57;8.80;;;6.07;;
7817;SDS011;3954;52.624;9.212;2024-01-30T13:03:23;7.07;;;6.00;;
7817;SDS011;3954;52.624;9.212;2024-01-30T13:05:49;9.33;;;6.73;;
7817;SDS011;3954;52.624;9.212;2024-01-30T13:08:15;9.83;;;5.77;;
7817;SDS011;3954;52.624;9.212;2024-01-30T13:10:41;8.13;;;6.37;;
7817;SDS011;3954;52.624;9.212;2024-01-30T13:13:08;7.60;;;6.57;;
7817;SDS011;3954;52.624;9.212;2024-01-30T13:15:34;11.30;;;6.40;;
7817;SDS011;3954;52.624;9.212;2024-01-30T13:18:00;8.87;;;6.40;;
7817;SDS011;3954;52.624;9.212;2024-01-30T13:20:27;9.37;;;6.43;;
7817;SDS011;3954;52.624;9.212;2024-01-30T13:22:53;10.33;;;6.93;;
7817;SDS011;3954;52.624;9.212;2024-01-30T13:25:19;8.10;;;6.10;;
7817;SDS011;3954;52.624;9.212;2024-01-30T13:27:45;7.53;;;6.50;;
7817;SDS011;3954;52.624;9.212;2024-01-30T13:30:12;7.40;;;5.93;;
7817;SDS011;3954;52.624;9.212;2024-01-30T13:32:39;7.17;;;6.47;;
7817;SDS011;3954;52.624;9.212;2024-01-30T13:35:06;8.33;;;6.27;;
7817;SDS011;3954;52.624;9.212;2024-01-30T13:37:32;7.33;;;6.47;;
7817;SDS011;3954;52.624;9.212;2024-01-30T13:39:58;12.27;;;7.20;;
7817;SDS011;3954;52.624;9.212;2024-01-30T13:42:25;8.17;;;7.17;;
7817;SDS011;3954;52.624;9.212;2024-01-30T13:44:51;8.87;;;6.47;;
7817;SDS011;3954;52.624;9.212;2024-01-30T13:47:18;9.50;;;6.47;;
7817;SDS011;3954;52.624;9.212;2024-01-30T13:49:46;9.17;;;6.47;;
7817;SDS011;3954;52.624;9.212;2024-01-30T13:52:12;8.80;;;6.23;;
7817;SDS011;3954;52.624;9.212;2024-01-30T13:54:38;10.97;;;6.43;;
7817;SDS011;3954;52.624;9.212;2024-01-30T13:57:05;10.00;;;7.07;;
7817;SDS011;3954;52.624;9.212;2024-01-30T13:59:31;8.27;;;6.47;;
7817;SDS011;3954;52.624;9.212;2024-01-30T14:01:57;8.97;;;6.20;;
7817;SDS011;3954;52.624;9.212;2024-01-30T14:04:24;8.80;;;6.53;;
7817;SDS011;3954;52.624;9.212;2024-01-30T14:06:50;10.10;;;8.83;;
7817;SDS011;3954;52.624;9.212;2024-01-30T14:09:16;11.80;;;10.17;;
7817;SDS011;3954;52.624;9.212;2024-01-30T14:11:43;12.57;;;9.30;;
7817;SDS011;3954;52.624;9.212;2024-01-30T14:14:09;16.97;;;8.03;;
7817;SDS011;3954;52.624;9.212;2024-01-30T14:16:35;7.97;;;6.57;;
7817;SDS011;3954;52.624;9.212;2024-01-30T14:19:01;7.07;;;6.30;;
7817;SDS011;3954;52.624;9.212;2024-01-30T14:21:28;8.73;;;6.97;;
7817;SDS011;3954;52.624;9.212;2024-01-30T14:23:54;8.33;;;6.27;;
7817;SDS011;3954;52.624;9.212;2024-01-30T14:26:20;7.80;;;6.70;;
7817;SDS011;3954;52.624;9.212;2024-01-30T14:28:46;10.93;;;6.97;;
7817;SDS011;3954;52.624;9.212;2024-01-30T14:31:12;8.13;;;6.53;;
7817;SDS011;3954;52.624;9.212;2024-01-30T14:33:39;7.90;;;6.13;;
7817;SDS011;3954;52.624;9.212;2024-01-30T14:36:05;10.33;;;7.10;;
7817;SDS011;3954;52.624;9.212;2024-01-30T14:38:34;8.70;;;6.50;;
7817;SDS011;3954;52.624;9.212;2024-01-30T14:41:00;12.63;;;6.87;;
7817;SDS011;3954;52.624;9.212;2024-01-30T14:43:26;8.37;;;6.07;;
7817;SDS011;3954;52.624;9.212;2024-01-30T14:45:52;12.20;;;6.80;;
7817;SDS011;3954;52.624;9.212;2024-01-30T14:48:18;9.40;;;6.33;;
7817;SDS011;3954;52.624;9.212;2024-01-30T14:50:44;11.63;;;7.33;;
7817;SDS011;3954;52.624;9.212;2024-01-30T14:53:10;12.13;;;7.07;;
7817;SDS011;3954;52.624;9.212;2024-01-30T14:55:38;8.03;;;7.07;;
7817;SDS011;3954;52.624;9.212;2024-01-30T14:58:03;8.33;;;6.40;;